createdAt,value
2023-03-18T00:00:43.623Z,6.1
2023-03-18T00:02:00.720Z,6.1
2023-03-18T00:03:17.749Z,6.1
2023-03-18T00:04:34.630Z,6.1
2023-03-18T00:05:51.628Z,6.1
2023-03-18T00:07:08.990Z,6.1
2023-03-18T00:08:25.672Z,6
2023-03-18T00:09:42.731Z,5.9
2023-03-18T00:10:59.692Z,5.8
2023-03-18T00:12:16.685Z,5.7
2023-03-18T00:13:33.699Z,5.7
2023-03-18T00:14:50.630Z,5.7
2023-03-18T00:16:07.703Z,5.6
2023-03-18T00:17:24.658Z,5.6
2023-03-18T00:18:41.713Z,5.6
2023-03-18T00:19:58.644Z,5.7
2023-03-18T00:21:15.635Z,5.7
2023-03-18T00:22:32.947Z,5.8
2023-03-18T00:23:50.286Z,5.8
2023-03-18T00:25:06.819Z,5.7
2023-03-18T00:26:23.805Z,5.7
2023-03-18T00:27:40.685Z,5.6
2023-03-18T00:28:57.648Z,5.5
2023-03-18T00:30:14.672Z,5.5
2023-03-18T00:31:31.696Z,5.4
2023-03-18T00:32:48.776Z,5.4
2023-03-18T00:34:05.647Z,5.4
2023-03-18T00:35:22.740Z,5.4
2023-03-18T00:36:39.685Z,5.3
2023-03-18T00:37:56.658Z,5.3
2023-03-18T00:39:14.006Z,5.3
2023-03-18T00:40:31.066Z,5.3
2023-03-18T00:41:47.749Z,5.3
2023-03-18T00:43:04.750Z,5.4
2023-03-18T00:44:21.839Z,5.5
2023-03-18T00:45:38.718Z,5.6
2023-03-18T00:46:55.794Z,5.8
2023-03-18T00:48:12.668Z,5.8
2023-03-18T00:49:29.709Z,5.9
2023-03-18T00:50:46.679Z,5.9
2023-03-18T00:52:03.733Z,5.8
2023-03-18T00:53:20.712Z,5.7
2023-03-18T00:54:38.174Z,5.7
2023-03-18T00:55:55.916Z,5.7
2023-03-18T00:57:13.303Z,5.6
2023-03-18T00:58:29.938Z,5.6
2023-03-18T00:59:46.767Z,5.7
2023-03-18T01:01:03.870Z,5.6
2023-03-18T01:02:20.737Z,5.6
2023-03-18T01:03:37.726Z,5.5
2023-03-18T01:04:54.684Z,5.6
2023-03-18T01:06:11.738Z,5.6
2023-03-18T01:07:28.688Z,5.6
2023-03-18T01:08:45.687Z,5.7
2023-03-18T01:10:02.736Z,5.7
2023-03-18T01:11:19.767Z,5.7
2023-03-18T01:12:37.593Z,5.7
2023-03-18T01:13:53.954Z,5.7
2023-03-18T01:15:10.815Z,5.7
2023-03-18T01:16:28.016Z,5.8
2023-03-18T01:17:44.762Z,5.6
2023-03-18T01:19:01.712Z,5.6
2023-03-18T01:20:18.771Z,5.5
2023-03-18T01:21:36.279Z,5.4
2023-03-18T01:22:52.743Z,5.3
2023-03-18T01:24:09.888Z,5.2
2023-03-18T01:25:26.733Z,5.2
2023-03-18T01:26:43.812Z,5.2
2023-03-18T01:28:00.754Z,5.1
2023-03-18T01:29:17.738Z,5
2023-03-18T01:30:34.753Z,5
2023-03-18T01:31:51.904Z,5.1
2023-03-18T01:33:08.872Z,5.2
2023-03-18T01:34:25.721Z,5.3
2023-03-18T01:35:42.747Z,5.3
2023-03-18T01:37:01.788Z,5.4
2023-03-18T01:38:18.763Z,5.5
2023-03-18T01:39:36.107Z,5.6
2023-03-18T01:40:52.764Z,5.6
2023-03-18T01:42:09.821Z,5.6
2023-03-18T01:43:26.769Z,5.6
2023-03-18T01:44:43.836Z,5.6
2023-03-18T01:46:00.861Z,5.6
2023-03-18T01:47:17.741Z,5.6
2023-03-18T01:48:34.741Z,5.5
2023-03-18T01:49:51.785Z,5.5
2023-03-18T01:51:08.742Z,5.4
2023-03-18T01:52:26.402Z,5.4
2023-03-18T01:53:43.762Z,5.4
2023-03-18T01:55:00.786Z,5.4
2023-03-18T01:56:17.777Z,5.4
2023-03-18T01:57:34.809Z,5.4
2023-03-18T01:58:51.786Z,5.4
2023-03-18T02:00:08.775Z,5.4
2023-03-18T02:01:25.963Z,5.4
2023-03-18T02:02:42.773Z,5.4
2023-03-18T02:03:59.820Z,5.4
2023-03-18T02:05:16.798Z,5.4
2023-03-18T02:06:33.796Z,5.4
2023-03-18T02:07:50.764Z,5.5
2023-03-18T02:09:08.164Z,5.6
2023-03-18T02:10:24.768Z,5.6
2023-03-18T02:11:41.793Z,5.6
2023-03-18T02:12:58.779Z,5.5
2023-03-18T02:14:15.830Z,5.4
2023-03-18T02:15:32.778Z,5.5
2023-03-18T02:16:49.898Z,5.5
2023-03-18T02:18:06.786Z,5.5
2023-03-18T02:19:23.819Z,5.5
2023-03-18T02:20:40.822Z,5.5
2023-03-18T02:21:57.791Z,5.5
2023-03-18T02:23:14.778Z,5.5
2023-03-18T02:24:31.813Z,5.5
2023-03-18T02:25:48.810Z,5.5
2023-03-18T02:27:05.808Z,5.5
2023-03-18T02:28:23.325Z,5.6
2023-03-18T02:29:39.822Z,5.6
2023-03-18T02:30:56.854Z,5.6
2023-03-18T02:32:13.792Z,5.6
2023-03-18T02:33:31.354Z,5.5
2023-03-18T02:34:47.845Z,5.5
2023-03-18T02:36:05.279Z,5.4
2023-03-18T02:37:21.810Z,5.3
2023-03-18T02:38:38.816Z,5.3
2023-03-18T02:39:55.863Z,5.2
2023-03-18T02:41:12.830Z,5.2
2023-03-18T02:42:29.838Z,5.3
2023-03-18T02:43:46.806Z,5.3
2023-03-18T02:45:03.845Z,5.3
2023-03-18T02:46:21.250Z,5.4
2023-03-18T02:47:37.813Z,5.4
2023-03-18T02:48:54.862Z,5.5
2023-03-18T02:50:11.851Z,5.5
2023-03-18T02:51:28.827Z,5.5
2023-03-18T02:52:46.064Z,5.5
2023-03-18T02:54:02.830Z,5.4
2023-03-18T02:55:19.861Z,5.5
2023-03-18T02:56:36.838Z,5.5
2023-03-18T02:57:53.876Z,5.5
2023-03-18T02:59:10.937Z,5.4
2023-03-18T03:00:27.861Z,5.5
2023-03-18T03:01:45.399Z,5.4
2023-03-18T03:03:02.015Z,5.4
2023-03-18T03:04:18.838Z,5.4
2023-03-18T03:05:35.872Z,5.4
2023-03-18T03:06:52.878Z,5.5
2023-03-18T03:08:09.839Z,5.5
2023-03-18T03:09:26.864Z,5.5
2023-03-18T03:10:43.887Z,5.5
2023-03-18T03:12:00.889Z,5.5
2023-03-18T03:13:17.942Z,5.5
2023-03-18T03:14:34.863Z,5.5
2023-03-18T03:15:51.948Z,5.4
2023-03-18T03:17:08.894Z,5.4
2023-03-18T03:18:25.854Z,5.4
2023-03-18T03:19:42.898Z,5.3
2023-03-18T03:20:59.865Z,5.3
2023-03-18T03:22:16.891Z,5.3
2023-03-18T03:23:33.943Z,5.2
2023-03-18T03:24:51.885Z,5.2
2023-03-18T03:26:08.899Z,5.1
2023-03-18T03:27:25.910Z,5
2023-03-18T03:28:42.913Z,5
2023-03-18T03:29:59.883Z,5
2023-03-18T03:31:16.997Z,5.1
2023-03-18T03:32:34.106Z,5.2
2023-03-18T03:33:51.426Z,5.2
2023-03-18T03:35:07.878Z,5.2
2023-03-18T03:36:24.904Z,5.2
2023-03-18T03:37:41.911Z,5.2
2023-03-18T03:38:58.890Z,5.2
2023-03-18T03:40:15.922Z,5.1
2023-03-18T03:41:32.892Z,5.1
2023-03-18T03:42:49.896Z,5.1
2023-03-18T03:44:06.945Z,5.2
2023-03-18T03:45:23.916Z,5.2
2023-03-18T03:46:41.056Z,5.3
2023-03-18T03:47:57.896Z,5.3
2023-03-18T03:49:14.922Z,5.3
2023-03-18T03:50:32.250Z,5.4
2023-03-18T03:51:48.981Z,5.5
2023-03-18T03:53:05.925Z,5.5
2023-03-18T03:54:22.954Z,5.4
2023-03-18T03:55:39.900Z,5.5
2023-03-18T03:56:56.910Z,5.6
2023-03-18T03:58:13.915Z,5.7
2023-03-18T03:59:31.081Z,5.7
2023-03-18T04:00:47.968Z,5.8
2023-03-18T04:02:04.905Z,5.8
2023-03-18T04:03:21.916Z,5.9
2023-03-18T04:04:38.941Z,5.9
2023-03-18T04:05:57.049Z,5.9
2023-03-18T04:07:13.984Z,5.9
2023-03-18T04:08:30.937Z,6
2023-03-18T04:09:47.955Z,6
2023-03-18T04:11:04.956Z,6.1
2023-03-18T04:12:21.924Z,6.1
2023-03-18T04:13:38.926Z,6.1
2023-03-18T04:14:55.963Z,6
2023-03-18T04:16:13.037Z,6
2023-03-18T04:17:29.956Z,6
2023-03-18T04:18:46.938Z,6
2023-03-18T04:20:03.947Z,6
2023-03-18T04:21:21.000Z,5.9
2023-03-18T04:22:37.972Z,5.9
2023-03-18T04:23:55.028Z,5.8
2023-03-18T04:25:11.943Z,5.8
2023-03-18T04:26:29.012Z,5.8
2023-03-18T04:27:45.961Z,5.8
2023-03-18T04:29:02.978Z,5.8
2023-03-18T04:30:20.025Z,5.8
2023-03-18T04:31:37.061Z,5.8
2023-03-18T04:32:53.959Z,5.8
2023-03-18T04:34:10.974Z,5.8
2023-03-18T04:35:27.948Z,5.8
2023-03-18T04:36:45.011Z,5.8
2023-03-18T04:38:01.966Z,5.9
2023-03-18T04:39:19.006Z,5.8
2023-03-18T04:40:36.066Z,5.7
2023-03-18T04:41:53.002Z,5.5
2023-03-18T04:43:10.084Z,5.4
2023-03-18T04:44:26.965Z,5.4
2023-03-18T04:45:44.072Z,5.4
2023-03-18T04:47:01.404Z,5.4
2023-03-18T04:48:17.979Z,5.4
2023-03-18T04:49:34.992Z,5.5
2023-03-18T04:50:51.969Z,5.6
2023-03-18T04:52:09.040Z,5.6
2023-03-18T04:53:25.970Z,5.7
2023-03-18T04:54:42.999Z,5.7
2023-03-18T04:55:59.993Z,5.7
2023-03-18T04:57:17.035Z,5.7
2023-03-18T04:58:34.001Z,5.8
2023-03-18T04:59:51.033Z,5.9
2023-03-18T05:01:08.112Z,5.9
2023-03-18T05:02:25.007Z,5.9
2023-03-18T05:03:42.031Z,5.8
2023-03-18T05:04:59.029Z,5.8
2023-03-18T05:06:16.542Z,5.8
2023-03-18T05:07:33.017Z,5.9
2023-03-18T05:08:50.020Z,5.9
2023-03-18T05:10:07.014Z,6
2023-03-18T05:11:24.007Z,6.1
2023-03-18T05:12:41.015Z,6.2
2023-03-18T05:13:58.012Z,6.2
2023-03-18T05:15:15.041Z,6.2
2023-03-18T05:16:32.060Z,6.3
2023-03-18T05:17:49.046Z,6.4
2023-03-18T05:19:06.026Z,6.4
2023-03-18T05:20:23.009Z,6.5
2023-03-18T05:21:40.008Z,6.7
2023-03-18T05:22:57.042Z,6.8
2023-03-18T05:24:14.021Z,7
2023-03-18T05:25:31.300Z,7.1
2023-03-18T05:26:48.224Z,7
2023-03-18T05:28:05.049Z,6.9
2023-03-18T05:29:22.019Z,6.9
2023-03-18T05:30:39.019Z,6.9
2023-03-18T05:31:56.212Z,6.8
2023-03-18T05:33:13.088Z,6.7
2023-03-18T05:34:30.025Z,6.6
2023-03-18T05:35:47.238Z,6.5
2023-03-18T05:37:04.070Z,6.5
2023-03-18T05:38:21.161Z,6.4
2023-03-18T05:39:38.057Z,6.4
2023-03-18T05:40:55.039Z,6.4
2023-03-18T05:42:13.392Z,6.5
2023-03-18T05:43:30.060Z,6.4
2023-03-18T05:44:47.138Z,6.4
2023-03-18T05:46:04.078Z,6.4
2023-03-18T05:47:21.173Z,6.5
2023-03-18T05:48:38.042Z,6.4
2023-03-18T05:49:55.047Z,6.5
2023-03-18T05:51:12.039Z,6.6
2023-03-18T05:52:29.074Z,6.7
2023-03-18T05:53:46.071Z,6.6
2023-03-18T05:55:03.052Z,6.5
2023-03-18T05:56:20.127Z,6.6
2023-03-18T05:57:37.108Z,6.7
2023-03-18T05:58:54.058Z,6.6
2023-03-18T06:00:11.123Z,6.7
2023-03-18T06:01:28.068Z,6.7
2023-03-18T06:02:45.136Z,6.8
2023-03-18T06:04:02.089Z,6.8
2023-03-18T06:05:19.070Z,6.8
2023-03-18T06:06:36.697Z,6.8
2023-03-18T06:07:54.113Z,7
2023-03-18T06:09:11.106Z,7.1
2023-03-18T06:10:28.079Z,7.3
2023-03-18T06:11:45.078Z,7.4
2023-03-18T06:13:02.575Z,7.4
2023-03-18T06:14:19.161Z,7.5
2023-03-18T06:15:36.110Z,7.5
2023-03-18T06:16:53.636Z,7.5
2023-03-18T06:18:10.115Z,7.6
2023-03-18T06:19:27.111Z,7.6
2023-03-18T06:20:44.093Z,7.6
2023-03-18T06:22:01.144Z,7.7
2023-03-18T06:23:18.148Z,7.7
2023-03-18T06:24:35.107Z,7.9
2023-03-18T06:25:52.115Z,8.2
2023-03-18T06:27:09.111Z,8.4
2023-03-18T06:28:26.152Z,8.5
2023-03-18T06:29:43.123Z,8.6
2023-03-18T06:31:00.218Z,8.7
2023-03-18T06:32:17.123Z,8.7
2023-03-18T06:33:34.205Z,8.8
2023-03-18T06:34:51.102Z,9
2023-03-18T06:36:08.117Z,9.1
2023-03-18T06:37:25.126Z,9.3
2023-03-18T06:38:42.577Z,9.3
2023-03-18T06:39:59.152Z,9.5
2023-03-18T06:41:16.167Z,9.4
2023-03-18T06:42:33.123Z,9.3
2023-03-18T06:43:50.145Z,9.2
2023-03-18T06:45:07.129Z,9.1
2023-03-18T06:46:24.203Z,9.1
2023-03-18T06:47:41.615Z,9.1
2023-03-18T06:48:58.179Z,9.2
2023-03-18T06:50:15.135Z,9.4
2023-03-18T06:51:32.160Z,9.6
2023-03-18T06:52:49.782Z,9.8
2023-03-18T06:54:07.161Z,9.9
2023-03-18T06:55:24.135Z,9.9
2023-03-18T06:56:41.210Z,10.1
2023-03-18T06:57:58.514Z,10.2
2023-03-18T06:59:15.158Z,10.3
2023-03-18T07:00:32.374Z,10.2
2023-03-18T07:01:49.619Z,10.1
2023-03-18T07:03:06.197Z,10.1
2023-03-18T07:04:23.251Z,10.3
2023-03-18T07:05:40.149Z,10.4
2023-03-18T07:06:57.194Z,10.5
2023-03-18T07:08:14.163Z,10.5
2023-03-18T07:09:31.173Z,10.5
2023-03-18T07:10:48.168Z,10.5
2023-03-18T07:12:05.267Z,10.5
2023-03-18T07:13:22.210Z,10.5
2023-03-18T07:14:39.627Z,10.6
2023-03-18T07:15:56.342Z,10.6
2023-03-18T07:17:13.185Z,10.5
2023-03-18T07:18:30.220Z,10.4
2023-03-18T07:19:47.197Z,10.3
2023-03-18T07:21:04.167Z,10.2
2023-03-18T07:22:21.176Z,10.2
2023-03-18T07:23:38.297Z,10.2
2023-03-18T07:24:55.177Z,10.4
2023-03-18T07:26:12.237Z,10.5
2023-03-18T07:27:29.170Z,10.5
2023-03-18T07:28:46.214Z,10.6
2023-03-18T07:30:03.242Z,10.7
2023-03-18T07:31:20.480Z,10.6
2023-03-18T07:32:37.224Z,10.6
2023-03-18T07:33:54.188Z,10.7
2023-03-18T07:35:11.236Z,10.7
2023-03-18T07:36:28.243Z,10.7
2023-03-18T07:37:45.187Z,10.8
2023-03-18T07:39:02.238Z,11
2023-03-18T07:40:19.644Z,11.1
2023-03-18T07:41:37.837Z,11
2023-03-18T07:42:53.260Z,10.9
2023-03-18T07:44:10.268Z,10.9
2023-03-18T07:45:27.224Z,10.9
2023-03-18T07:46:44.360Z,11
2023-03-18T07:48:01.235Z,11
2023-03-18T07:49:18.350Z,11.1
2023-03-18T07:50:35.318Z,11.2
2023-03-18T07:51:52.298Z,11.4
2023-03-18T07:53:09.229Z,11.6
2023-03-18T07:54:26.215Z,11.7
2023-03-18T07:55:43.243Z,11.7
2023-03-18T07:57:00.229Z,11.7
2023-03-18T07:58:17.244Z,11.8
2023-03-18T07:59:34.207Z,11.9
2023-03-18T08:00:51.305Z,12
2023-03-18T08:02:08.334Z,12
2023-03-18T08:03:25.237Z,12.1
2023-03-18T08:04:42.258Z,12.2
2023-03-18T08:05:59.655Z,12.3
2023-03-18T08:07:16.269Z,12.3
2023-03-18T08:08:33.234Z,12.2
2023-03-18T08:09:50.270Z,12.3
2023-03-18T08:11:07.246Z,12.4
2023-03-18T08:12:24.321Z,12.6
2023-03-18T08:13:41.231Z,12.8
2023-03-18T08:14:58.288Z,12.9
2023-03-18T08:16:15.304Z,12.9
2023-03-18T08:17:32.473Z,12.9
2023-03-18T08:18:51.721Z,12.8
2023-03-18T08:20:11.020Z,12.7
2023-03-18T08:21:30.433Z,12.6
2023-03-18T08:22:47.237Z,12.6
2023-03-18T08:24:04.259Z,12.8
2023-03-18T08:25:21.700Z,12.9
2023-03-18T08:26:38.277Z,13
2023-03-18T08:27:55.297Z,13
2023-03-18T08:29:12.259Z,13.1
2023-03-18T08:30:29.457Z,13.1
2023-03-18T08:31:46.527Z,13.1
2023-03-18T08:33:03.366Z,13.1
2023-03-18T08:34:20.268Z,13.1
2023-03-18T08:35:37.674Z,13.1
2023-03-18T08:36:54.354Z,13.3
2023-03-18T08:38:11.657Z,13.4
2023-03-18T08:39:28.289Z,13.3
2023-03-18T08:40:45.312Z,13.3
2023-03-18T08:42:02.285Z,13.5
2023-03-18T08:43:19.342Z,13.6
2023-03-18T08:44:36.323Z,13.8
2023-03-18T08:45:53.297Z,13.8
2023-03-18T08:47:10.310Z,14
2023-03-18T08:48:27.329Z,14.2
2023-03-18T08:49:44.305Z,14.3
2023-03-18T08:51:01.512Z,14.3
2023-03-18T08:52:18.313Z,14.3
2023-03-18T08:53:35.322Z,14.4
2023-03-18T08:54:52.340Z,14.2
2023-03-18T08:56:09.306Z,14.2
2023-03-18T08:57:26.333Z,14.3
2023-03-18T08:58:43.432Z,14.3
2023-03-18T09:00:00.316Z,14.3
2023-03-18T09:01:17.522Z,14.4
2023-03-18T09:02:34.372Z,14.3
2023-03-18T09:03:52.073Z,14.1
2023-03-18T09:05:08.354Z,14.1
2023-03-18T09:06:25.386Z,14.2
2023-03-18T09:07:42.810Z,14.2
2023-03-18T09:08:59.384Z,14.1
2023-03-18T09:10:16.368Z,14.1
2023-03-18T09:11:33.323Z,14.2
2023-03-18T09:12:50.324Z,14.3
2023-03-18T09:14:07.379Z,14.3
2023-03-18T09:15:24.573Z,14.4
2023-03-18T09:16:41.395Z,14.6
2023-03-18T09:18:10.662Z,14.9
2023-03-18T09:19:15.325Z,14.8
2023-03-18T09:20:32.420Z,14.9
2023-03-18T09:21:49.370Z,15
2023-03-18T09:23:06.382Z,15
2023-03-18T09:24:23.331Z,15.1
2023-03-18T09:25:41.173Z,15.1
2023-03-18T09:26:58.399Z,15.1
2023-03-18T09:28:15.361Z,15.3
2023-03-18T09:29:32.484Z,15.5
2023-03-18T09:30:49.482Z,15.7
2023-03-18T09:32:06.342Z,15.9
2023-03-18T09:33:23.332Z,15.8
2023-03-18T09:34:40.351Z,15.6
2023-03-18T09:35:57.754Z,15.5
2023-03-18T09:37:14.337Z,15.5
2023-03-18T09:38:31.389Z,15.6
2023-03-18T09:39:48.380Z,15.6
2023-03-18T09:41:05.385Z,15.6
2023-03-18T09:42:22.382Z,15.7
2023-03-18T09:43:39.359Z,15.8
2023-03-18T09:44:56.580Z,15.9
2023-03-18T09:46:13.676Z,15.9
2023-03-18T09:47:30.907Z,16.1
2023-03-18T09:48:48.895Z,16.3
2023-03-18T09:50:06.022Z,16.3
2023-03-18T09:51:25.406Z,16.3
2023-03-18T09:52:42.393Z,16.5
2023-03-18T09:53:59.411Z,16.6
2023-03-18T09:55:16.401Z,16.6
2023-03-18T09:56:33.383Z,16.7
2023-03-18T09:57:51.468Z,16.9
2023-03-18T09:59:08.388Z,17.1
2023-03-18T10:00:25.382Z,17.3
2023-03-18T10:01:43.143Z,17.1
2023-03-18T10:03:06.736Z,16.9
2023-03-18T10:04:23.383Z,16.8
2023-03-18T10:05:40.394Z,16.7
2023-03-18T10:06:57.402Z,16.6
2023-03-18T10:08:14.463Z,16.5
2023-03-18T10:09:31.520Z,16.3
2023-03-18T10:10:48.401Z,16.2
2023-03-18T10:12:05.405Z,16.1
2023-03-18T10:13:22.407Z,16.3
2023-03-18T10:14:39.564Z,16.2
2023-03-18T10:15:56.420Z,16.2
2023-03-18T10:17:13.436Z,16.1
2023-03-18T10:18:30.437Z,16.3
2023-03-18T10:19:47.408Z,16.4
2023-03-18T10:21:04.412Z,16.7
2023-03-18T10:22:21.455Z,17.1
2023-03-18T10:23:38.455Z,17.4
2023-03-18T10:24:55.529Z,17.4
2023-03-18T10:26:12.419Z,17.4
2023-03-18T10:27:29.476Z,17.6
2023-03-18T10:28:46.558Z,17.8
2023-03-18T10:30:03.434Z,17.8
2023-03-18T10:31:31.129Z,18
2023-03-18T10:32:50.101Z,18.2
2023-03-18T10:34:05.471Z,18.4
2023-03-18T10:35:22.461Z,18.6
2023-03-18T10:36:39.502Z,18.5
2023-03-18T10:37:56.444Z,18.4
2023-03-18T10:39:14.577Z,18.2
2023-03-18T10:40:34.471Z,18.1
2023-03-18T10:41:51.516Z,17.9
2023-03-18T10:43:08.828Z,18
2023-03-18T10:44:25.597Z,18.2
2023-03-18T10:45:42.465Z,18.3
2023-03-18T10:46:59.626Z,18.3
2023-03-18T10:48:16.499Z,18.4
2023-03-18T10:49:34.467Z,18.4
2023-03-18T10:50:52.476Z,18.3
2023-03-18T10:52:10.508Z,18.3
2023-03-18T10:53:27.635Z,18.1
2023-03-18T10:54:44.486Z,17.9
2023-03-18T10:56:01.504Z,17.9
2023-03-18T10:57:18.941Z,18
2023-03-18T10:58:35.470Z,18.1
2023-03-18T10:59:56.484Z,18.2
2023-03-18T11:01:16.424Z,18.1
2023-03-18T11:02:32.995Z,18
2023-03-18T11:03:49.485Z,17.9
2023-03-18T11:05:06.509Z,18
2023-03-18T11:06:23.508Z,17.9
2023-03-18T11:07:40.522Z,17.9
2023-03-18T11:08:57.540Z,17.9
2023-03-18T11:10:14.525Z,17.9
2023-03-18T11:11:31.522Z,18
2023-03-18T11:12:48.553Z,17.9
2023-03-18T11:14:05.736Z,18.1
2023-03-18T11:15:22.503Z,18.4
2023-03-18T11:16:39.510Z,18.7
2023-03-18T11:17:56.603Z,19
2023-03-18T11:19:13.512Z,18.9
2023-03-18T11:20:30.617Z,18.7
2023-03-18T11:21:47.508Z,18.4
2023-03-18T11:23:04.541Z,18.3
2023-03-18T11:24:21.592Z,18.3
2023-03-18T11:25:38.538Z,18.5
2023-03-18T11:26:55.554Z,19.1
2023-03-18T11:28:12.583Z,19.5
2023-03-18T11:29:29.555Z,19.7
2023-03-18T11:30:46.572Z,19.8
2023-03-18T11:32:03.523Z,19.9
2023-03-18T11:33:20.605Z,19.9
2023-03-18T11:34:37.762Z,19.7
2023-03-18T11:36:02.544Z,19.6
2023-03-18T11:37:19.531Z,19.7
2023-03-18T11:38:36.576Z,20
2023-03-18T11:39:58.935Z,20.2
2023-03-18T11:41:10.547Z,20.2
2023-03-18T11:42:27.656Z,20.1
2023-03-18T11:43:44.564Z,20.2
2023-03-18T11:45:01.596Z,20.2
2023-03-18T11:46:18.604Z,20.3
2023-03-18T11:47:35.548Z,20.4
2023-03-18T11:48:53.222Z,20.3
2023-03-18T11:50:11.575Z,20.4
2023-03-18T11:51:28.608Z,20.4
2023-03-18T11:52:45.619Z,20.3
2023-03-18T11:54:02.590Z,20.1
2023-03-18T11:55:19.551Z,19.7
2023-03-18T11:56:36.604Z,19.4
2023-03-18T11:57:53.597Z,19.4
2023-03-18T11:59:10.592Z,19.6
2023-03-18T12:00:27.635Z,19.5
2023-03-18T12:01:44.616Z,19.4
2023-03-18T12:03:01.580Z,19.2
2023-03-18T12:04:18.599Z,19
2023-03-18T12:05:35.715Z,18.9
2023-03-18T12:06:52.617Z,18.9
2023-03-18T12:08:09.626Z,18.9
2023-03-18T12:09:26.584Z,19.1
2023-03-18T12:10:43.608Z,19.2
2023-03-18T12:12:00.651Z,19.3
2023-03-18T12:13:17.601Z,19.4
2023-03-18T12:14:34.605Z,19.4
2023-03-18T12:15:51.638Z,19.5
2023-03-18T12:17:08.592Z,19.7
2023-03-18T12:18:25.616Z,19.7
2023-03-18T12:19:42.587Z,19.8
2023-03-18T12:20:59.684Z,19.8
2023-03-18T12:22:17.383Z,19.8
2023-03-18T12:23:34.602Z,19.7
2023-03-18T12:24:51.687Z,19.6
2023-03-18T12:26:08.680Z,19.5
2023-03-18T12:27:25.656Z,19.5
2023-03-18T12:28:42.659Z,19.8
2023-03-18T12:29:59.618Z,19.8
2023-03-18T12:31:16.772Z,19.7
2023-03-18T12:32:33.755Z,19.5
2023-03-18T12:33:50.629Z,19.4
2023-03-18T12:35:07.636Z,19.5
2023-03-18T12:36:24.635Z,19.5
2023-03-18T12:37:41.694Z,19.6
2023-03-18T12:38:58.623Z,19.5
2023-03-18T12:40:15.640Z,19.4
2023-03-18T12:41:32.639Z,19.3
2023-03-18T12:42:49.661Z,19.3
2023-03-18T12:44:06.753Z,19.2
2023-03-18T12:45:23.639Z,19.3
2023-03-18T12:46:40.639Z,19.4
2023-03-18T12:47:57.631Z,19.5
2023-03-18T12:49:14.666Z,19.5
2023-03-18T12:50:31.659Z,19.6
2023-03-18T12:51:48.662Z,19.9
2023-03-18T12:53:05.660Z,20
2023-03-18T12:54:22.689Z,20
2023-03-18T12:55:39.649Z,20
2023-03-18T12:56:56.658Z,19.9
2023-03-18T12:58:13.676Z,19.5
2023-03-18T12:59:30.743Z,19.4
2023-03-18T13:00:47.840Z,19.4
2023-03-18T13:02:04.798Z,19.3
2023-03-18T13:03:21.699Z,19.1
2023-03-18T13:04:38.699Z,19
2023-03-18T13:05:55.710Z,19
2023-03-18T13:07:12.666Z,18.8
2023-03-18T13:08:29.665Z,18.7
2023-03-18T13:09:46.703Z,18.6
2023-03-18T13:11:03.675Z,18.6
2023-03-18T13:12:20.694Z,18.7
2023-03-18T13:13:37.675Z,18.7
2023-03-18T13:14:54.812Z,18.7
2023-03-18T13:16:11.671Z,18.8
2023-03-18T13:17:28.698Z,18.7
2023-03-18T13:18:45.679Z,18.7
2023-03-18T13:20:02.760Z,18.7
2023-03-18T13:21:19.679Z,18.8
2023-03-18T13:22:36.720Z,18.9
2023-03-18T13:23:53.679Z,18.9
2023-03-18T13:25:12.782Z,18.8
2023-03-18T13:26:27.706Z,19
2023-03-18T13:27:44.710Z,19.3
2023-03-18T13:29:01.862Z,19.2
2023-03-18T13:30:18.716Z,19.2
2023-03-18T13:31:35.769Z,19.1
2023-03-18T13:32:52.740Z,19
2023-03-18T13:34:09.765Z,18.9
2023-03-18T13:35:26.778Z,18.9
2023-03-18T13:36:43.715Z,18.9
2023-03-18T13:38:00.702Z,18.9
2023-03-18T13:39:17.801Z,18.8
2023-03-18T13:40:34.848Z,18.9
2023-03-18T13:41:51.725Z,19.1
2023-03-18T13:43:08.753Z,19.4
2023-03-18T13:44:25.720Z,19.7
2023-03-18T13:45:42.778Z,19.9
2023-03-18T13:46:59.751Z,19.8
2023-03-18T13:48:16.726Z,19.7
2023-03-18T13:49:33.728Z,19.4
2023-03-18T13:50:50.804Z,19.4
2023-03-18T13:52:07.792Z,19.5
2023-03-18T13:53:24.802Z,19.7
2023-03-18T13:54:41.758Z,19.9
2023-03-18T13:55:58.759Z,19.8
2023-03-18T13:57:15.729Z,19.7
2023-03-18T13:58:32.760Z,19.5
2023-03-18T13:59:49.760Z,19.2
2023-03-18T14:01:09.202Z,19.2
2023-03-18T14:02:24.746Z,19.3
2023-03-18T14:03:41.898Z,19.6
2023-03-18T14:04:58.958Z,19.8
2023-03-18T14:06:15.848Z,20
2023-03-18T14:07:32.770Z,20.1
2023-03-18T14:08:49.750Z,20
2023-03-18T14:10:18.186Z,20
2023-03-18T14:11:23.846Z,20
2023-03-18T14:12:40.762Z,20
2023-03-18T14:13:57.826Z,20
2023-03-18T14:15:14.830Z,20
2023-03-18T14:16:31.842Z,19.9
2023-03-18T14:17:48.810Z,19.6
2023-03-18T14:19:05.808Z,19.4
2023-03-18T14:20:22.770Z,19.3
2023-03-18T14:21:39.838Z,19.4
2023-03-18T14:22:56.892Z,19.5
2023-03-18T14:24:13.794Z,19.6
2023-03-18T14:25:30.933Z,19.5
2023-03-18T14:26:47.834Z,19.3
2023-03-18T14:28:05.005Z,19.2
2023-03-18T14:29:21.783Z,19.1
2023-03-18T14:30:38.811Z,19.2
2023-03-18T14:31:55.908Z,19.4
2023-03-18T14:33:12.933Z,19.4
2023-03-18T14:34:29.803Z,19.3
2023-03-18T14:35:46.938Z,19.4
2023-03-18T14:37:03.857Z,19.4
2023-03-18T14:38:20.861Z,19.5
2023-03-18T14:39:37.832Z,19.5
2023-03-18T14:40:54.909Z,19.5
2023-03-18T14:42:11.804Z,19.5
2023-03-18T14:43:28.875Z,19.4
2023-03-18T14:44:46.132Z,19.3
2023-03-18T14:46:02.842Z,19.2
2023-03-18T14:47:31.866Z,19.3
2023-03-18T14:48:37.579Z,19.4
2023-03-18T14:49:54.862Z,19.9
2023-03-18T14:51:11.913Z,20.2
2023-03-18T14:52:28.890Z,20.3
2023-03-18T14:53:48.578Z,20.4
2023-03-18T14:55:02.960Z,20.5
2023-03-18T14:56:19.830Z,20.8
2023-03-18T14:57:36.851Z,21
2023-03-18T14:58:53.866Z,21.1
2023-03-18T15:00:31.905Z,21.1
2023-03-18T15:01:52.229Z,20.8
2023-03-18T15:03:10.150Z,20.4
2023-03-18T15:04:26.992Z,20
2023-03-18T15:05:43.907Z,19.8
2023-03-18T15:07:02.363Z,19.6
2023-03-18T15:08:20.481Z,19.5
2023-03-18T15:09:38.386Z,19.5
2023-03-18T15:10:54.992Z,19.4
2023-03-18T15:12:12.355Z,19.3
2023-03-18T15:13:29.962Z,19.3
2023-03-18T15:14:50.123Z,19.2
2023-03-18T15:16:08.777Z,19.2
2023-03-18T15:17:25.923Z,19
2023-03-18T15:18:45.026Z,18.9
2023-03-18T15:20:03.483Z,18.9
2023-03-18T15:21:23.869Z,18.8
2023-03-18T15:22:43.523Z,18.7
2023-03-18T15:24:02.172Z,18.7
2023-03-18T15:25:20.813Z,18.6
2023-03-18T15:26:39.344Z,18.6
2023-03-18T15:27:56.934Z,18.6
2023-03-18T15:29:15.619Z,18.6
2023-03-18T15:30:39.292Z,18.6
2023-03-18T15:31:57.204Z,18.6
2023-03-18T15:33:16.049Z,18.7
2023-03-18T15:34:35.117Z,18.7
2023-03-18T15:37:42.958Z,18.8
2023-03-18T15:40:55.907Z,18.7
2023-03-18T15:42:24.783Z,18.7
2023-03-18T15:43:53.092Z,18.6
2023-03-18T15:45:24.425Z,18.6
2023-03-18T15:46:59.135Z,18.6
2023-03-18T15:48:23.282Z,18.5
2023-03-18T15:49:47.345Z,18.4
2023-03-18T15:51:07.110Z,18.4
2023-03-18T15:52:40.741Z,18.4
2023-03-18T15:54:09.295Z,18.4
2023-03-18T15:55:41.973Z,18.4
2023-03-18T15:57:10.921Z,18.4
2023-03-18T15:58:39.320Z,18.2
2023-03-18T16:00:15.266Z,18.1
2023-03-18T16:01:45.656Z,18
2023-03-18T16:03:13.295Z,18
2023-03-18T16:04:46.081Z,18.1
2023-03-18T16:06:22.112Z,18
2023-03-18T16:07:51.436Z,17.9
2023-03-18T16:09:18.711Z,17.8
2023-03-18T16:12:44.551Z,17.5
2023-03-18T16:14:26.211Z,17.6
2023-03-18T16:15:50.418Z,17.6
2023-03-18T16:17:21.541Z,17.6
2023-03-18T16:18:46.761Z,17.7
2023-03-18T16:20:13.044Z,17.7
2023-03-18T16:21:37.388Z,17.8
2023-03-18T16:23:10.923Z,17.9
2023-03-18T16:24:51.005Z,17.9
2023-03-18T16:26:16.644Z,17.9
2023-03-18T16:27:52.130Z,17.9
2023-03-18T16:29:21.796Z,17.9
2023-03-18T16:30:39.175Z,17.7
2023-03-18T16:31:57.834Z,17.7
2023-03-18T16:33:14.807Z,17.5
2023-03-18T16:34:31.906Z,17.5
2023-03-18T16:35:52.663Z,17.4
2023-03-18T16:37:10.482Z,17.3
2023-03-18T16:38:30.460Z,17.2
2023-03-18T16:39:48.962Z,17.2
2023-03-18T16:41:06.141Z,17.1
2023-03-18T16:42:24.458Z,17
2023-03-18T16:43:43.276Z,16.9
2023-03-18T16:45:00.969Z,16.8
2023-03-18T16:46:19.062Z,16.8
2023-03-18T16:47:37.158Z,16.8
2023-03-18T16:48:54.888Z,16.8
2023-03-18T16:50:13.504Z,16.8
2023-03-18T16:51:31.077Z,16.8
2023-03-18T16:52:48.934Z,16.8
2023-03-18T16:54:07.521Z,16.8
2023-03-18T16:55:24.912Z,16.7
2023-03-18T16:56:43.250Z,16.7
2023-03-18T16:58:01.379Z,16.6
2023-03-18T16:59:18.915Z,16.6
2023-03-18T17:00:36.810Z,16.6
2023-03-18T17:01:54.420Z,16.4
2023-03-18T17:03:11.868Z,16.3
2023-03-18T17:04:29.964Z,16.2
2023-03-18T17:05:46.812Z,16.1
2023-03-18T17:07:03.875Z,16.1
2023-03-18T17:08:20.878Z,16.1
2023-03-18T17:09:38.867Z,16.1
2023-03-18T17:10:55.976Z,16.1
2023-03-18T17:12:14.216Z,16
2023-03-18T17:13:30.841Z,15.9
2023-03-18T17:14:47.835Z,15.8
2023-03-18T17:16:04.926Z,15.8
2023-03-18T17:17:23.008Z,15.7
2023-03-18T17:18:39.825Z,15.7
2023-03-18T17:19:56.856Z,15.7
2023-03-18T17:21:15.367Z,15.7
2023-03-18T17:22:32.000Z,15.7
2023-03-18T17:23:48.868Z,15.7
2023-03-18T17:25:05.931Z,15.7
2023-03-18T17:26:24.338Z,15.7
2023-03-18T17:27:41.065Z,15.7
2023-03-18T17:29:00.945Z,15.6
2023-03-18T17:30:18.910Z,15.6
2023-03-18T17:31:40.058Z,15.6
2023-03-18T17:33:00.556Z,15.5
2023-03-18T17:34:17.944Z,15.5
2023-03-18T17:35:36.361Z,15.5
2023-03-18T17:36:52.857Z,15.4
2023-03-18T17:38:10.926Z,15.4
2023-03-18T17:39:30.547Z,15.4